sensor_id;sensor_type;location;lat;lon;timestamp;P1;durP1;ratioP1;P2;durP2;ratioP2
20844;SDS011;10583;49.084;8.646;2023-08-12T00:00:12;4.77;;;4.77;;
20844;SDS011;10583;49.084;8.646;2023-08-12T00:02:42;4.40;;;4.40;;
20844;SDS011;10583;49.084;8.646;2023-08-12T00:05:13;4.37;;;4.37;;
20844;SDS011;10583;49.084;8.646;2023-08-12T00:07:43;4.57;;;4.57;;
20844;SDS011;10583;49.084;8.646;2023-08-12T00:10:13;4.90;;;4.90;;
20844;SDS011;10583;49.084;8.646;2023-08-12T00:12:40;5.10;;;5.10;;
20844;SDS011;10583;49.084;8.646;2023-08-12T00:15:08;4.80;;;4.80;;
20844;SDS011;10583;49.084;8.646;2023-08-12T00:17:37;4.50;;;4.50;;
20844;SDS011;10583;49.084;8.646;2023-08-12T00:20:06;4.77;;;4.77;;
20844;SDS011;10583;49.084;8.646;2023-08-12T00:22:36;5.23;;;5.23;;
20844;SDS011;10583;49.084;8.646;2023-08-12T00:25:03;4.97;;;4.97;;
20844;SDS011;10583;49.084;8.646;2023-08-12T00:27:31;5.00;;;5.00;;
20844;SDS011;10583;49.084;8.646;2023-08-12T00:29:58;4.90;;;4.90;;
20844;SDS011;10583;49.084;8.646;2023-08-12T00:32:25;4.50;;;4.50;;
20844;SDS011;10583;49.084;8.646;2023-08-12T00:34:54;4.23;;;4.23;;
20844;SDS011;10583;49.084;8.646;2023-08-12T00:37:21;4.50;;;4.50;;
20844;SDS011;10583;49.084;8.646;2023-08-12T00:39:49;4.17;;;4.17;;
20844;SDS011;10583;49.084;8.646;2023-08-12T00:42:16;4.37;;;4.37;;
20844;SDS011;10583;49.084;8.646;2023-08-12T00:44:43;4.60;;;4.60;;
20844;SDS011;10583;49.084;8.646;2023-08-12T00:47:10;4.63;;;4.63;;
20844;SDS011;10583;49.084;8.646;2023-08-12T00:49:37;4.97;;;4.97;;
20844;SDS011;10583;49.084;8.646;2023-08-12T00:52:07;4.50;;;4.50;;
20844;SDS011;10583;49.084;8.646;2023-08-12T00:54:34;5.00;;;5.00;;
20844;SDS011;10583;49.084;8.646;2023-08-12T00:57:01;4.70;;;4.70;;
20844;SDS011;10583;49.084;8.646;2023-08-12T00:59:29;4.70;;;4.70;;
20844;SDS011;10583;49.084;8.646;2023-08-12T01:01:56;4.73;;;4.73;;
20844;SDS011;10583;49.084;8.646;2023-08-12T01:04:23;5.03;;;5.03;;
20844;SDS011;10583;49.084;8.646;2023-08-12T01:06:50;5.33;;;5.33;;
20844;SDS011;10583;49.084;8.646;2023-08-12T01:09:21;5.53;;;5.53;;
20844;SDS011;10583;49.084;8.646;2023-08-12T01:11:49;4.97;;;4.97;;
20844;SDS011;10583;49.084;8.646;2023-08-12T01:14:28;4.93;;;4.93;;
20844;SDS011;10583;49.084;8.646;2023-08-12T01:17:05;5.23;;;5.23;;
20844;SDS011;10583;49.084;8.646;2023-08-12T01:19:36;5.40;;;5.40;;
20844;SDS011;10583;49.084;8.646;2023-08-12T01:22:08;5.07;;;5.07;;
20844;SDS011;10583;49.084;8.646;2023-08-12T01:24:39;5.03;;;5.03;;
20844;SDS011;10583;49.084;8.646;2023-08-12T01:27:10;4.90;;;4.90;;
20844;SDS011;10583;49.084;8.646;2023-08-12T01:29:40;4.67;;;4.67;;
20844;SDS011;10583;49.084;8.646;2023-08-12T01:32:14;4.60;;;4.60;;
20844;SDS011;10583;49.084;8.646;2023-08-12T01:34:53;4.43;;;4.43;;
20844;SDS011;10583;49.084;8.646;2023-08-12T01:37:25;4.47;;;4.47;;
20844;SDS011;10583;49.084;8.646;2023-08-12T01:39:56;4.70;;;4.70;;
20844;SDS011;10583;49.084;8.646;2023-08-12T01:42:27;4.10;;;4.10;;
20844;SDS011;10583;49.084;8.646;2023-08-12T01:44:55;4.60;;;4.60;;
20844;SDS011;10583;49.084;8.646;2023-08-12T01:47:22;4.70;;;4.70;;
20844;SDS011;10583;49.084;8.646;2023-08-12T01:49:49;4.50;;;4.50;;
20844;SDS011;10583;49.084;8.646;2023-08-12T01:52:16;4.63;;;4.63;;
20844;SDS011;10583;49.084;8.646;2023-08-12T01:54:43;4.73;;;4.73;;
20844;SDS011;10583;49.084;8.646;2023-08-12T01:57:12;4.97;;;4.97;;
20844;SDS011;10583;49.084;8.646;2023-08-12T01:59:38;5.00;;;5.00;;
20844;SDS011;10583;49.084;8.646;2023-08-12T02:02:06;4.87;;;4.87;;
20844;SDS011;10583;49.084;8.646;2023-08-12T02:04:33;5.07;;;5.07;;
20844;SDS011;10583;49.084;8.646;2023-08-12T02:07:02;4.90;;;4.90;;
20844;SDS011;10583;49.084;8.646;2023-08-12T02:09:29;4.60;;;4.60;;
20844;SDS011;10583;49.084;8.646;2023-08-12T02:11:57;5.57;;;5.57;;
20844;SDS011;10583;49.084;8.646;2023-08-12T02:14:25;5.00;;;5.00;;
20844;SDS011;10583;49.084;8.646;2023-08-12T02:16:52;5.13;;;5.13;;
20844;SDS011;10583;49.084;8.646;2023-08-12T02:19:19;5.27;;;5.27;;
20844;SDS011;10583;49.084;8.646;2023-08-12T02:21:46;4.70;;;4.70;;
20844;SDS011;10583;49.084;8.646;2023-08-12T02:24:13;4.70;;;4.70;;
20844;SDS011;10583;49.084;8.646;2023-08-12T02:26:40;4.77;;;4.77;;
20844;SDS011;10583;49.084;8.646;2023-08-12T02:29:07;4.70;;;4.70;;
20844;SDS011;10583;49.084;8.646;2023-08-12T02:31:35;4.90;;;4.90;;
20844;SDS011;10583;49.084;8.646;2023-08-12T02:34:02;5.00;;;5.00;;
20844;SDS011;10583;49.084;8.646;2023-08-12T02:36:29;4.50;;;4.50;;
20844;SDS011;10583;49.084;8.646;2023-08-12T02:38:56;4.53;;;4.53;;
20844;SDS011;10583;49.084;8.646;2023-08-12T02:41:23;4.60;;;4.60;;
20844;SDS011;10583;49.084;8.646;2023-08-12T02:43:50;4.73;;;4.73;;
20844;SDS011;10583;49.084;8.646;2023-08-12T02:46:17;4.97;;;4.97;;
20844;SDS011;10583;49.084;8.646;2023-08-12T02:48:45;4.73;;;4.73;;
20844;SDS011;10583;49.084;8.646;2023-08-12T02:51:13;4.80;;;4.80;;
20844;SDS011;10583;49.084;8.646;2023-08-12T02:53:40;4.40;;;4.40;;
20844;SDS011;10583;49.084;8.646;2023-08-12T02:56:07;4.72;;;4.72;;
20844;SDS011;10583;49.084;8.646;2023-08-12T02:58:34;4.85;;;4.85;;
20844;SDS011;10583;49.084;8.646;2023-08-12T03:01:02;4.32;;;4.32;;
20844;SDS011;10583;49.084;8.646;2023-08-12T03:03:30;4.90;;;4.90;;
20844;SDS011;10583;49.084;8.646;2023-08-12T03:05:58;4.43;;;4.43;;
20844;SDS011;10583;49.084;8.646;2023-08-12T03:08:25;4.97;;;4.97;;
20844;SDS011;10583;49.084;8.646;2023-08-12T03:10:57;4.70;;;4.70;;
20844;SDS011;10583;49.084;8.646;2023-08-12T03:13:24;4.37;;;4.37;;
20844;SDS011;10583;49.084;8.646;2023-08-12T03:15:52;4.00;;;4.00;;
20844;SDS011;10583;49.084;8.646;2023-08-12T03:18:18;4.50;;;4.50;;
20844;SDS011;10583;49.084;8.646;2023-08-12T03:20:45;4.82;;;4.82;;
20844;SDS011;10583;49.084;8.646;2023-08-12T03:23:13;5.00;;;5.00;;
20844;SDS011;10583;49.084;8.646;2023-08-12T03:25:40;4.97;;;4.97;;
20844;SDS011;10583;49.084;8.646;2023-08-12T03:28:07;4.80;;;4.80;;
20844;SDS011;10583;49.084;8.646;2023-08-12T03:30:34;5.00;;;5.00;;
20844;SDS011;10583;49.084;8.646;2023-08-12T03:33:02;4.17;;;4.17;;
20844;SDS011;10583;49.084;8.646;2023-08-12T03:35:30;4.38;;;4.38;;
20844;SDS011;10583;49.084;8.646;2023-08-12T03:37:56;4.27;;;4.27;;
20844;SDS011;10583;49.084;8.646;2023-08-12T03:40:25;4.70;;;4.70;;
20844;SDS011;10583;49.084;8.646;2023-08-12T03:42:51;4.13;;;4.13;;
20844;SDS011;10583;49.084;8.646;2023-08-12T03:45:18;4.30;;;4.30;;
20844;SDS011;10583;49.084;8.646;2023-08-12T03:47:45;4.80;;;4.80;;
20844;SDS011;10583;49.084;8.646;2023-08-12T03:50:12;4.30;;;4.30;;
20844;SDS011;10583;49.084;8.646;2023-08-12T03:52:39;4.10;;;4.10;;
20844;SDS011;10583;49.084;8.646;2023-08-12T03:55:06;4.00;;;4.00;;
20844;SDS011;10583;49.084;8.646;2023-08-12T03:57:36;4.10;;;4.10;;
20844;SDS011;10583;49.084;8.646;2023-08-12T04:00:03;3.80;;;3.80;;
20844;SDS011;10583;49.084;8.646;2023-08-12T04:02:32;4.13;;;4.13;;
20844;SDS011;10583;49.084;8.646;2023-08-12T04:04:59;4.97;;;4.97;;
20844;SDS011;10583;49.084;8.646;2023-08-12T04:07:26;4.20;;;4.20;;
20844;SDS011;10583;49.084;8.646;2023-08-12T04:09:53;4.70;;;4.70;;
20844;SDS011;10583;49.084;8.646;2023-08-12T04:12:20;4.40;;;4.40;;
20844;SDS011;10583;49.084;8.646;2023-08-12T04:14:49;5.00;;;5.00;;
20844;SDS011;10583;49.084;8.646;2023-08-12T04:17:16;5.20;;;5.20;;
20844;SDS011;10583;49.084;8.646;2023-08-12T04:19:42;5.77;;;5.77;;
20844;SDS011;10583;49.084;8.646;2023-08-12T04:22:09;4.80;;;4.80;;
20844;SDS011;10583;49.084;8.646;2023-08-12T04:24:36;5.10;;;5.10;;
20844;SDS011;10583;49.084;8.646;2023-08-12T04:27:03;4.40;;;4.40;;
20844;SDS011;10583;49.084;8.646;2023-08-12T04:29:30;4.90;;;4.90;;
20844;SDS011;10583;49.084;8.646;2023-08-12T04:31:58;5.10;;;5.10;;
20844;SDS011;10583;49.084;8.646;2023-08-12T04:34:25;4.70;;;4.70;;
20844;SDS011;10583;49.084;8.646;2023-08-12T04:36:52;4.87;;;4.87;;
20844;SDS011;10583;49.084;8.646;2023-08-12T04:39:19;4.63;;;4.63;;
20844;SDS011;10583;49.084;8.646;2023-08-12T04:41:47;4.50;;;4.50;;
20844;SDS011;10583;49.084;8.646;2023-08-12T04:44:14;4.33;;;4.33;;
20844;SDS011;10583;49.084;8.646;2023-08-12T04:46:41;4.60;;;4.60;;
20844;SDS011;10583;49.084;8.646;2023-08-12T04:49:09;4.53;;;4.53;;
20844;SDS011;10583;49.084;8.646;2023-08-12T04:51:36;4.80;;;4.80;;
20844;SDS011;10583;49.084;8.646;2023-08-12T04:54:03;4.20;;;4.20;;
20844;SDS011;10583;49.084;8.646;2023-08-12T04:56:30;4.60;;;4.60;;
20844;SDS011;10583;49.084;8.646;2023-08-12T04:58:57;4.53;;;4.53;;
20844;SDS011;10583;49.084;8.646;2023-08-12T05:01:24;5.05;;;5.05;;
20844;SDS011;10583;49.084;8.646;2023-08-12T05:03:52;4.67;;;4.67;;
20844;SDS011;10583;49.084;8.646;2023-08-12T05:06:20;4.18;;;4.18;;
20844;SDS011;10583;49.084;8.646;2023-08-12T05:08:48;3.90;;;3.90;;
20844;SDS011;10583;49.084;8.646;2023-08-12T05:11:15;4.35;;;4.35;;
20844;SDS011;10583;49.084;8.646;2023-08-12T05:13:42;4.33;;;4.33;;
20844;SDS011;10583;49.084;8.646;2023-08-12T05:16:09;4.50;;;4.50;;
20844;SDS011;10583;49.084;8.646;2023-08-12T05:18:36;4.60;;;4.60;;
20844;SDS011;10583;49.084;8.646;2023-08-12T05:21:03;4.53;;;4.53;;
20844;SDS011;10583;49.084;8.646;2023-08-12T05:23:31;4.30;;;4.30;;
20844;SDS011;10583;49.084;8.646;2023-08-12T05:25:58;4.63;;;4.63;;
20844;SDS011;10583;49.084;8.646;2023-08-12T05:28:25;4.40;;;4.40;;
20844;SDS011;10583;49.084;8.646;2023-08-12T05:30:52;4.30;;;4.30;;
20844;SDS011;10583;49.084;8.646;2023-08-12T05:33:20;4.63;;;4.63;;
20844;SDS011;10583;49.084;8.646;2023-08-12T05:35:47;4.72;;;4.72;;
20844;SDS011;10583;49.084;8.646;2023-08-12T05:38:14;4.38;;;4.38;;
20844;SDS011;10583;49.084;8.646;2023-08-12T05:40:42;4.68;;;4.68;;
20844;SDS011;10583;49.084;8.646;2023-08-12T05:43:09;4.30;;;4.30;;
20844;SDS011;10583;49.084;8.646;2023-08-12T05:45:36;4.93;;;4.93;;
20844;SDS011;10583;49.084;8.646;2023-08-12T05:48:04;4.60;;;4.60;;
20844;SDS011;10583;49.084;8.646;2023-08-12T05:50:31;4.43;;;4.43;;
20844;SDS011;10583;49.084;8.646;2023-08-12T05:52:58;4.72;;;4.72;;
20844;SDS011;10583;49.084;8.646;2023-08-12T05:55:25;4.60;;;4.60;;
20844;SDS011;10583;49.084;8.646;2023-08-12T05:57:53;4.93;;;4.93;;
20844;SDS011;10583;49.084;8.646;2023-08-12T06:00:21;4.78;;;4.78;;
20844;SDS011;10583;49.084;8.646;2023-08-12T06:02:47;4.80;;;4.80;;
20844;SDS011;10583;49.084;8.646;2023-08-12T06:05:14;4.82;;;4.82;;
20844;SDS011;10583;49.084;8.646;2023-08-12T06:07:41;4.90;;;4.90;;
20844;SDS011;10583;49.084;8.646;2023-08-12T06:10:09;4.40;;;4.40;;
20844;SDS011;10583;49.084;8.646;2023-08-12T06:12:36;4.70;;;4.70;;
20844;SDS011;10583;49.084;8.646;2023-08-12T06:15:05;5.00;;;5.00;;
20844;SDS011;10583;49.084;8.646;2023-08-12T06:17:32;5.07;;;5.07;;
20844;SDS011;10583;49.084;8.646;2023-08-12T06:19:59;5.10;;;5.10;;
20844;SDS011;10583;49.084;8.646;2023-08-12T06:22:27;5.10;;;5.10;;
20844;SDS011;10583;49.084;8.646;2023-08-12T06:24:55;4.78;;;4.78;;
20844;SDS011;10583;49.084;8.646;2023-08-12T06:27:22;5.00;;;5.00;;
20844;SDS011;10583;49.084;8.646;2023-08-12T06:29:49;4.40;;;4.40;;
20844;SDS011;10583;49.084;8.646;2023-08-12T06:32:17;4.20;;;4.20;;
20844;SDS011;10583;49.084;8.646;2023-08-12T06:34:44;4.60;;;4.60;;
20844;SDS011;10583;49.084;8.646;2023-08-12T06:37:11;4.28;;;4.28;;
20844;SDS011;10583;49.084;8.646;2023-08-12T06:39:38;4.88;;;4.88;;
20844;SDS011;10583;49.084;8.646;2023-08-12T06:42:05;4.30;;;4.30;;
20844;SDS011;10583;49.084;8.646;2023-08-12T06:44:32;4.55;;;4.55;;
20844;SDS011;10583;49.084;8.646;2023-08-12T06:46:59;4.38;;;4.38;;
20844;SDS011;10583;49.084;8.646;2023-08-12T06:49:28;4.93;;;4.93;;
20844;SDS011;10583;49.084;8.646;2023-08-12T06:51:55;5.25;;;5.25;;
20844;SDS011;10583;49.084;8.646;2023-08-12T06:54:22;3.97;;;3.97;;
20844;SDS011;10583;49.084;8.646;2023-08-12T06:56:49;4.20;;;4.20;;
20844;SDS011;10583;49.084;8.646;2023-08-12T06:59:16;4.50;;;4.50;;
20844;SDS011;10583;49.084;8.646;2023-08-12T07:01:43;4.70;;;4.70;;
20844;SDS011;10583;49.084;8.646;2023-08-12T07:04:10;4.57;;;4.57;;
20844;SDS011;10583;49.084;8.646;2023-08-12T07:06:39;4.45;;;4.45;;
20844;SDS011;10583;49.084;8.646;2023-08-12T07:09:05;4.13;;;4.13;;
20844;SDS011;10583;49.084;8.646;2023-08-12T07:11:33;4.22;;;4.22;;
20844;SDS011;10583;49.084;8.646;2023-08-12T07:14:00;4.15;;;4.15;;
20844;SDS011;10583;49.084;8.646;2023-08-12T07:16:27;4.03;;;4.03;;
20844;SDS011;10583;49.084;8.646;2023-08-12T07:18:54;4.32;;;4.32;;
20844;SDS011;10583;49.084;8.646;2023-08-12T07:21:21;4.20;;;4.20;;
20844;SDS011;10583;49.084;8.646;2023-08-12T07:23:49;4.65;;;4.65;;
20844;SDS011;10583;49.084;8.646;2023-08-12T07:26:16;4.13;;;4.13;;
20844;SDS011;10583;49.084;8.646;2023-08-12T07:28:43;4.00;;;4.00;;
20844;SDS011;10583;49.084;8.646;2023-08-12T07:31:10;4.40;;;4.40;;
20844;SDS011;10583;49.084;8.646;2023-08-12T07:33:37;3.97;;;3.97;;
20844;SDS011;10583;49.084;8.646;2023-08-12T07:36:04;4.45;;;4.45;;
20844;SDS011;10583;49.084;8.646;2023-08-12T07:38:31;4.15;;;4.15;;
20844;SDS011;10583;49.084;8.646;2023-08-12T07:41:01;3.67;;;3.67;;
20844;SDS011;10583;49.084;8.646;2023-08-12T07:43:28;4.07;;;4.07;;
20844;SDS011;10583;49.084;8.646;2023-08-12T07:45:55;4.28;;;4.28;;
20844;SDS011;10583;49.084;8.646;2023-08-12T07:48:22;4.03;;;4.03;;
20844;SDS011;10583;49.084;8.646;2023-08-12T07:50:54;4.00;;;4.00;;
20844;SDS011;10583;49.084;8.646;2023-08-12T07:53:21;4.78;;;4.78;;
20844;SDS011;10583;49.084;8.646;2023-08-12T07:55:48;4.38;;;4.38;;
20844;SDS011;10583;49.084;8.646;2023-08-12T07:58:16;4.72;;;4.72;;
20844;SDS011;10583;49.084;8.646;2023-08-12T08:00:43;4.63;;;4.63;;
20844;SDS011;10583;49.084;8.646;2023-08-12T08:03:10;4.22;;;4.22;;
20844;SDS011;10583;49.084;8.646;2023-08-12T08:05:39;4.50;;;4.50;;
20844;SDS011;10583;49.084;8.646;2023-08-12T08:08:08;4.35;;;4.35;;
20844;SDS011;10583;49.084;8.646;2023-08-12T08:10:35;4.07;;;4.07;;
20844;SDS011;10583;49.084;8.646;2023-08-12T08:13:02;5.05;;;5.05;;
20844;SDS011;10583;49.084;8.646;2023-08-12T08:15:31;3.95;;;3.95;;
20844;SDS011;10583;49.084;8.646;2023-08-12T08:17:58;3.50;;;3.50;;
20844;SDS011;10583;49.084;8.646;2023-08-12T08:20:24;3.75;;;3.75;;
20844;SDS011;10583;49.084;8.646;2023-08-12T08:22:51;4.60;;;4.60;;
20844;SDS011;10583;49.084;8.646;2023-08-12T08:25:20;4.43;;;4.43;;
20844;SDS011;10583;49.084;8.646;2023-08-12T08:27:47;4.55;;;4.55;;
20844;SDS011;10583;49.084;8.646;2023-08-12T08:30:14;4.28;;;4.28;;
20844;SDS011;10583;49.084;8.646;2023-08-12T08:32:42;4.03;;;4.03;;
20844;SDS011;10583;49.084;8.646;2023-08-12T08:35:11;4.18;;;4.18;;
20844;SDS011;10583;49.084;8.646;2023-08-12T08:37:38;4.15;;;4.15;;
20844;SDS011;10583;49.084;8.646;2023-08-12T08:40:05;4.20;;;4.20;;
20844;SDS011;10583;49.084;8.646;2023-08-12T08:42:34;4.45;;;4.45;;
20844;SDS011;10583;49.084;8.646;2023-08-12T08:45:01;4.45;;;4.45;;
20844;SDS011;10583;49.084;8.646;2023-08-12T08:47:29;4.47;;;4.47;;
20844;SDS011;10583;49.084;8.646;2023-08-12T08:49:57;4.30;;;4.30;;
20844;SDS011;10583;49.084;8.646;2023-08-12T08:52:26;3.92;;;3.92;;
20844;SDS011;10583;49.084;8.646;2023-08-12T08:54:55;4.43;;;4.43;;
20844;SDS011;10583;49.084;8.646;2023-08-12T08:57:23;4.40;;;4.40;;
20844;SDS011;10583;49.084;8.646;2023-08-12T08:59:50;4.32;;;4.32;;
20844;SDS011;10583;49.084;8.646;2023-08-12T09:02:19;4.50;;;4.50;;
20844;SDS011;10583;49.084;8.646;2023-08-12T09:04:50;4.07;;;4.07;;
20844;SDS011;10583;49.084;8.646;2023-08-12T09:07:19;4.65;;;4.65;;
20844;SDS011;10583;49.084;8.646;2023-08-12T09:09:47;4.78;;;4.78;;
20844;SDS011;10583;49.084;8.646;2023-08-12T09:12:18;4.10;;;4.10;;
20844;SDS011;10583;49.084;8.646;2023-08-12T09:14:46;4.45;;;4.45;;
20844;SDS011;10583;49.084;8.646;2023-08-12T09:17:12;3.78;;;3.78;;
20844;SDS011;10583;49.084;8.646;2023-08-12T09:19:41;4.05;;;4.05;;
20844;SDS011;10583;49.084;8.646;2023-08-12T09:22:08;4.25;;;4.25;;
20844;SDS011;10583;49.084;8.646;2023-08-12T09:24:37;4.00;;;4.00;;
20844;SDS011;10583;49.084;8.646;2023-08-12T09:27:05;4.50;;;4.50;;
20844;SDS011;10583;49.084;8.646;2023-08-12T09:29:32;4.10;;;4.10;;
20844;SDS011;10583;49.084;8.646;2023-08-12T09:32:09;4.28;;;4.28;;
20844;SDS011;10583;49.084;8.646;2023-08-12T09:34:43;4.05;;;4.05;;
20844;SDS011;10583;49.084;8.646;2023-08-12T09:37:14;3.90;;;3.90;;
20844;SDS011;10583;49.084;8.646;2023-08-12T09:39:44;4.35;;;4.35;;
20844;SDS011;10583;49.084;8.646;2023-08-12T09:42:13;4.18;;;4.18;;
20844;SDS011;10583;49.084;8.646;2023-08-12T09:44:42;4.53;;;4.53;;
20844;SDS011;10583;49.084;8.646;2023-08-12T09:47:10;4.63;;;4.63;;
20844;SDS011;10583;49.084;8.646;2023-08-12T09:49:38;4.43;;;4.43;;
20844;SDS011;10583;49.084;8.646;2023-08-12T09:52:06;4.30;;;4.30;;
20844;SDS011;10583;49.084;8.646;2023-08-12T09:54:34;4.03;;;4.03;;
20844;SDS011;10583;49.084;8.646;2023-08-12T09:57:04;4.40;;;4.40;;
20844;SDS011;10583;49.084;8.646;2023-08-12T09:59:33;4.38;;;4.38;;
20844;SDS011;10583;49.084;8.646;2023-08-12T10:02:00;4.78;;;4.78;;
20844;SDS011;10583;49.084;8.646;2023-08-12T10:04:33;4.38;;;4.38;;
20844;SDS011;10583;49.084;8.646;2023-08-12T10:07:04;4.30;;;4.30;;
20844;SDS011;10583;49.084;8.646;2023-08-12T10:09:32;4.20;;;4.20;;
20844;SDS011;10583;49.084;8.646;2023-08-12T10:12:01;3.85;;;3.85;;
20844;SDS011;10583;49.084;8.646;2023-08-12T10:14:29;3.83;;;3.83;;
20844;SDS011;10583;49.084;8.646;2023-08-12T10:16:57;3.95;;;3.95;;
20844;SDS011;10583;49.084;8.646;2023-08-12T10:19:24;4.15;;;4.15;;
20844;SDS011;10583;49.084;8.646;2023-08-12T10:21:54;3.75;;;3.75;;
20844;SDS011;10583;49.084;8.646;2023-08-12T10:24:23;4.10;;;4.10;;
20844;SDS011;10583;49.084;8.646;2023-08-12T10:26:50;3.90;;;3.90;;
20844;SDS011;10583;49.084;8.646;2023-08-12T10:29:19;3.80;;;3.80;;
20844;SDS011;10583;49.084;8.646;2023-08-12T10:31:47;3.33;;;3.33;;
20844;SDS011;10583;49.084;8.646;2023-08-12T10:34:18;3.38;;;3.38;;
20844;SDS011;10583;49.084;8.646;2023-08-12T10:36:48;3.72;;;3.72;;
20844;SDS011;10583;49.084;8.646;2023-08-12T10:39:21;3.58;;;3.58;;
20844;SDS011;10583;49.084;8.646;2023-08-12T10:41:51;3.17;;;3.17;;
20844;SDS011;10583;49.084;8.646;2023-08-12T10:44:21;3.70;;;3.70;;
20844;SDS011;10583;49.084;8.646;2023-08-12T10:46:53;3.70;;;3.70;;
20844;SDS011;10583;49.084;8.646;2023-08-12T10:49:21;3.88;;;3.88;;
20844;SDS011;10583;49.084;8.646;2023-08-12T10:51:48;3.75;;;3.75;;
20844;SDS011;10583;49.084;8.646;2023-08-12T10:54:17;3.88;;;3.88;;
20844;SDS011;10583;49.084;8.646;2023-08-12T10:57:06;3.72;;;3.72;;
20844;SDS011;10583;49.084;8.646;2023-08-12T10:59:50;3.83;;;3.83;;
20844;SDS011;10583;49.084;8.646;2023-08-12T11:02:19;4.30;;;4.30;;
20844;SDS011;10583;49.084;8.646;2023-08-12T11:04:48;3.60;;;3.60;;
20844;SDS011;10583;49.084;8.646;2023-08-12T11:07:18;3.58;;;3.58;;
20844;SDS011;10583;49.084;8.646;2023-08-12T11:09:48;4.25;;;4.25;;
20844;SDS011;10583;49.084;8.646;2023-08-12T11:12:18;3.83;;;3.83;;
20844;SDS011;10583;49.084;8.646;2023-08-12T11:14:54;4.18;;;4.18;;
20844;SDS011;10583;49.084;8.646;2023-08-12T11:17:28;4.20;;;4.20;;
20844;SDS011;10583;49.084;8.646;2023-08-12T11:19:58;4.10;;;4.10;;
20844;SDS011;10583;49.084;8.646;2023-08-12T11:22:26;4.10;;;4.10;;
20844;SDS011;10583;49.084;8.646;2023-08-12T11:24:54;4.32;;;4.32;;
20844;SDS011;10583;49.084;8.646;2023-08-12T11:27:21;4.13;;;4.13;;
20844;SDS011;10583;49.084;8.646;2023-08-12T11:29:49;3.92;;;3.92;;
20844;SDS011;10583;49.084;8.646;2023-08-12T11:32:17;4.85;;;4.85;;
20844;SDS011;10583;49.084;8.646;2023-08-12T11:34:45;4.80;;;4.80;;
20844;SDS011;10583;49.084;8.646;2023-08-12T11:37:12;4.63;;;4.63;;
20844;SDS011;10583;49.084;8.646;2023-08-12T11:39:39;4.10;;;4.10;;
20844;SDS011;10583;49.084;8.646;2023-08-12T11:42:06;4.18;;;4.18;;
20844;SDS011;10583;49.084;8.646;2023-08-12T11:44:33;4.50;;;4.50;;
20844;SDS011;10583;49.084;8.646;2023-08-12T11:47:00;4.30;;;4.30;;
20844;SDS011;10583;49.084;8.646;2023-08-12T11:49:28;4.13;;;4.13;;
20844;SDS011;10583;49.084;8.646;2023-08-12T11:51:55;4.38;;;4.38;;
20844;SDS011;10583;49.084;8.646;2023-08-12T11:54:22;4.32;;;4.32;;
20844;SDS011;10583;49.084;8.646;2023-08-12T11:56:49;4.90;;;4.90;;
20844;SDS011;10583;49.084;8.646;2023-08-12T11:59:17;4.65;;;4.65;;
20844;SDS011;10583;49.084;8.646;2023-08-12T12:01:46;4.15;;;4.15;;
20844;SDS011;10583;49.084;8.646;2023-08-12T12:04:15;4.10;;;4.10;;
20844;SDS011;10583;49.084;8.646;2023-08-12T12:06:46;4.10;;;4.10;;
20844;SDS011;10583;49.084;8.646;2023-08-12T12:09:13;3.47;;;3.47;;
20844;SDS011;10583;49.084;8.646;2023-08-12T12:11:43;3.95;;;3.95;;
20844;SDS011;10583;49.084;8.646;2023-08-12T12:14:10;3.50;;;3.50;;
20844;SDS011;10583;49.084;8.646;2023-08-12T12:16:38;3.63;;;3.63;;
20844;SDS011;10583;49.084;8.646;2023-08-12T12:19:09;4.22;;;4.22;;
20844;SDS011;10583;49.084;8.646;2023-08-12T12:21:40;3.97;;;3.97;;
20844;SDS011;10583;49.084;8.646;2023-08-12T12:24:09;4.20;;;4.20;;
20844;SDS011;10583;49.084;8.646;2023-08-12T12:26:36;4.18;;;4.18;;
20844;SDS011;10583;49.084;8.646;2023-08-12T12:29:03;4.40;;;4.40;;
20844;SDS011;10583;49.084;8.646;2023-08-12T12:31:31;4.43;;;4.43;;
20844;SDS011;10583;49.084;8.646;2023-08-12T12:33:59;4.40;;;4.40;;
20844;SDS011;10583;49.084;8.646;2023-08-12T12:36:26;4.65;;;4.65;;
20844;SDS011;10583;49.084;8.646;2023-08-12T12:38:53;3.92;;;3.92;;
20844;SDS011;10583;49.084;8.646;2023-08-12T12:41:22;4.22;;;4.22;;
20844;SDS011;10583;49.084;8.646;2023-08-12T12:43:49;4.50;;;4.50;;
20844;SDS011;10583;49.084;8.646;2023-08-12T12:46:15;4.72;;;4.72;;
20844;SDS011;10583;49.084;8.646;2023-08-12T12:48:43;4.50;;;4.50;;
20844;SDS011;10583;49.084;8.646;2023-08-12T12:51:10;3.67;;;3.67;;
20844;SDS011;10583;49.084;8.646;2023-08-12T12:53:37;4.03;;;4.03;;
20844;SDS011;10583;49.084;8.646;2023-08-12T12:56:05;4.63;;;4.63;;
20844;SDS011;10583;49.084;8.646;2023-08-12T12:58:34;4.28;;;4.28;;
20844;SDS011;10583;49.084;8.646;2023-08-12T13:01:02;4.00;;;4.00;;
20844;SDS011;10583;49.084;8.646;2023-08-12T13:03:29;4.20;;;4.20;;
20844;SDS011;10583;49.084;8.646;2023-08-12T13:05:56;3.50;;;3.50;;
20844;SDS011;10583;49.084;8.646;2023-08-12T13:08:23;3.58;;;3.58;;
20844;SDS011;10583;49.084;8.646;2023-08-12T13:10:50;3.70;;;3.70;;
20844;SDS011;10583;49.084;8.646;2023-08-12T13:13:17;3.83;;;3.83;;
20844;SDS011;10583;49.084;8.646;2023-08-12T13:15:46;3.40;;;3.40;;
20844;SDS011;10583;49.084;8.646;2023-08-12T13:18:13;3.10;;;3.10;;
20844;SDS011;10583;49.084;8.646;2023-08-12T13:20:40;3.63;;;3.63;;
20844;SDS011;10583;49.084;8.646;2023-08-12T13:23:07;3.60;;;3.60;;
20844;SDS011;10583;49.084;8.646;2023-08-12T13:25:34;3.58;;;3.58;;
20844;SDS011;10583;49.084;8.646;2023-08-12T13:28:00;3.40;;;3.40;;
20844;SDS011;10583;49.084;8.646;2023-08-12T13:30:28;3.15;;;3.15;;
20844;SDS011;10583;49.084;8.646;2023-08-12T13:32:56;3.40;;;3.40;;
20844;SDS011;10583;49.084;8.646;2023-08-12T13:35:23;3.50;;;3.50;;
20844;SDS011;10583;49.084;8.646;2023-08-12T13:37:52;4.22;;;4.22;;
20844;SDS011;10583;49.084;8.646;2023-08-12T13:40:19;3.38;;;3.38;;
20844;SDS011;10583;49.084;8.646;2023-08-12T13:42:45;3.78;;;3.78;;
20844;SDS011;10583;49.084;8.646;2023-08-12T13:45:13;3.90;;;3.90;;
20844;SDS011;10583;49.084;8.646;2023-08-12T13:47:39;4.05;;;4.05;;
20844;SDS011;10583;49.084;8.646;2023-08-12T13:50:08;3.65;;;3.65;;
20844;SDS011;10583;49.084;8.646;2023-08-12T13:52:36;3.50;;;3.50;;
20844;SDS011;10583;49.084;8.646;2023-08-12T13:55:03;3.58;;;3.58;;
20844;SDS011;10583;49.084;8.646;2023-08-12T13:57:30;3.50;;;3.50;;
20844;SDS011;10583;49.084;8.646;2023-08-12T13:59:57;3.60;;;3.60;;
20844;SDS011;10583;49.084;8.646;2023-08-12T14:02:24;3.55;;;3.55;;
20844;SDS011;10583;49.084;8.646;2023-08-12T14:04:51;3.20;;;3.20;;
20844;SDS011;10583;49.084;8.646;2023-08-12T14:07:19;3.63;;;3.63;;
20844;SDS011;10583;49.084;8.646;2023-08-12T14:09:46;3.22;;;3.22;;
20844;SDS011;10583;49.084;8.646;2023-08-12T14:12:13;3.50;;;3.50;;
20844;SDS011;10583;49.084;8.646;2023-08-12T14:14:40;3.70;;;3.70;;
20844;SDS011;10583;49.084;8.646;2023-08-12T14:17:07;3.42;;;3.42;;
20844;SDS011;10583;49.084;8.646;2023-08-12T14:19:38;3.40;;;3.40;;
20844;SDS011;10583;49.084;8.646;2023-08-12T14:22:05;3.17;;;3.17;;
20844;SDS011;10583;49.084;8.646;2023-08-12T14:24:33;3.35;;;3.35;;
20844;SDS011;10583;49.084;8.646;2023-08-12T14:27:00;3.10;;;3.10;;
20844;SDS011;10583;49.084;8.646;2023-08-12T14:29:27;3.78;;;3.78;;
20844;SDS011;10583;49.084;8.646;2023-08-12T14:31:54;3.15;;;3.15;;
20844;SDS011;10583;49.084;8.646;2023-08-12T14:34:21;3.40;;;3.40;;
20844;SDS011;10583;49.084;8.646;2023-08-12T14:36:48;3.95;;;3.95;;
20844;SDS011;10583;49.084;8.646;2023-08-12T14:39:14;3.30;;;3.30;;
20844;SDS011;10583;49.084;8.646;2023-08-12T14:41:42;3.60;;;3.60;;
20844;SDS011;10583;49.084;8.646;2023-08-12T14:44:09;3.70;;;3.70;;
20844;SDS011;10583;49.084;8.646;2023-08-12T14:46:36;3.70;;;3.70;;
20844;SDS011;10583;49.084;8.646;2023-08-12T14:49:03;3.95;;;3.95;;
20844;SDS011;10583;49.084;8.646;2023-08-12T14:51:30;3.60;;;3.60;;